Time;durP1;ratioP1;P1;durP2;ratioP2;P2;SDS_P1;SDS_P2;PMS_P1;PMS_P2;Temp;Humidity;BMP_temperature;BMP_pressure;BME280_temperature;BME280_humidity;BME280_pressure;Samples;Min_cycle;Max_cycle;Signal;HPM_P1;HPM_P2
2021/03/05 00:00:43;;;;;;;;;83.00;58.75;;;;;7.08;69.44;99390.91;4971539;28;8851;-63
2021/03/05 00:03:11;;;;;;;;;84.00;60.25;;;;;7.18;68.47;99383.28;4974332;28;8859;-62
2021/03/05 00:05:40;;;;;;;;;85.25;60.25;;;;;7.24;69.12;99390.97;4969834;28;8851;-64
2021/03/05 00:08:11;;;;;;;;;79.00;58.75;;;;;7.04;68.79;99381.34;4977565;28;8844;-64
2021/03/05 00:10:42;;;;;;;;;83.50;61.75;;;;;7.11;68.96;99380.09;4996065;28;8837;-64
2021/03/05 00:13:11;;;;;;;;;79.25;58.25;;;;;6.87;69.70;99381.34;4993401;28;8818;-63
2021/03/05 00:15:42;;;;;;;;;73.50;51.75;;;;;6.85;70.38;99383.25;4975992;28;8929;-64
2021/03/05 00:18:10;;;;;;;;;82.50;60.75;;;;;7.00;68.65;99383.34;4972936;28;8870;-64
2021/03/05 00:20:42;;;;;;;;;81.75;57.50;;;;;7.02;69.46;99378.75;4972270;28;8943;-63
2021/03/05 00:23:09;;;;;;;;;82.25;61.00;;;;;7.01;68.76;99379.72;4974902;28;8859;-64
2021/03/05 00:25:36;;;;;;;;;86.75;57.75;;;;;6.95;69.49;99373.81;4989138;28;8848;-63
2021/03/05 00:28:05;;;;;;;;;74.25;55.00;;;;;7.06;68.40;99371.47;4970956;28;8852;-63
2021/03/05 00:30:36;;;;;;;;;83.00;57.25;;;;;7.05;68.50;99372.38;4972050;28;8887;-64
2021/03/05 00:33:06;;;;;;;;;79.75;58.00;;;;;6.91;68.94;99367.78;4973258;28;8840;-64
2021/03/05 00:35:52;;;;;;;;;84.50;60.75;;;;;6.53;71.17;99365.28;4970149;28;8947;-63
2021/03/05 00:38:23;;;;;;;;;76.25;55.25;;;;;6.52;71.85;99366.19;4973231;28;8852;-63
2021/03/05 00:40:51;;;;;;;;;79.50;58.25;;;;;6.60;71.14;99357.81;4980265;28;8858;-63
2021/03/05 00:43:20;;;;;;;;;78.50;58.00;;;;;6.68;70.17;99355.59;4977834;28;8865;-63
2021/03/05 00:45:49;;;;;;;;;76.00;55.75;;;;;6.73;69.27;99361.56;4958256;28;8918;-63
2021/03/05 00:48:18;;;;;;;;;77.75;57.25;;;;;6.65;70.46;99360.25;4973721;28;8856;-64
2021/03/05 00:50:46;;;;;;;;;81.25;57.00;;;;;6.53;70.80;99353.72;4967680;28;8894;-64
2021/03/05 00:53:13;;;;;;;;;80.75;60.25;;;;;6.61;70.84;99356.88;4989845;28;8837;-63
2021/03/05 00:55:40;;;;;;;;;76.00;59.00;;;;;6.48;72.00;99353.97;4972974;28;8848;-64
2021/03/05 00:58:11;;;;;;;;;82.50;58.25;;;;;6.40;71.20;99352.59;4977501;28;9593;-64
2021/03/05 01:00:38;;;;;;;;;77.00;57.50;;;;;7.05;68.15;99348.38;4975507;28;8974;-64
2021/03/05 01:03:13;;;;;;;;;72.75;55.00;;;;;7.01;68.63;99352.16;4976378;28;8848;-63
2021/03/05 01:05:41;;;;;;;;;73.00;56.75;;;;;7.08;67.59;99348.19;4973636;28;8840;-64
2021/03/05 01:08:08;;;;;;;;;74.00;54.50;;;;;7.09;67.74;99351.75;4992849;28;8923;-64
2021/03/05 01:10:37;;;;;;;;;65.75;52.50;;;;;7.18;66.79;99337.91;4976936;28;8894;-64
2021/03/05 01:13:05;;;;;;;;;80.50;58.50;;;;;7.30;65.52;99347.09;4991555;28;8942;-63
2021/03/05 01:15:35;;;;;;;;;80.25;56.75;;;;;7.11;67.48;99342.72;4979822;28;8843;-64
2021/03/05 01:18:02;;;;;;;;;83.25;60.00;;;;;6.85;68.44;99341.41;4976986;28;8860;-64
2021/03/05 01:20:30;;;;;;;;;86.00;60.25;;;;;6.81;70.17;99342.50;4976627;28;8856;-63
2021/03/05 01:23:01;;;;;;;;;81.75;59.75;;;;;6.69;69.36;99333.34;4977060;28;8929;-64
2021/03/05 01:25:33;;;;;;;;;75.25;57.50;;;;;6.60;70.44;99328.47;4976419;28;8872;-63
2021/03/05 01:28:01;;;;;;;;;93.00;65.50;;;;;6.57;70.97;99324.16;4976953;28;9597;-64
2021/03/05 01:30:28;;;;;;;;;85.50;63.00;;;;;6.56;71.14;99313.56;4958987;28;9588;-63
2021/03/05 01:32:56;;;;;;;;;81.50;61.25;;;;;6.31;71.73;99317.47;4975845;28;9602;-63
2021/03/05 01:35:27;;;;;;;;;76.25;60.50;;;;;6.53;71.31;99319.03;4973082;28;9759;-63
2021/03/05 01:37:54;;;;;;;;;85.00;63.25;;;;;6.68;71.32;99314.72;4975320;28;8883;-63
2021/03/05 01:40:40;;;;;;;;;83.25;59.50;;;;;6.88;69.33;99313.72;4976071;28;9577;-64
2021/03/05 01:43:13;;;;;;;;;83.50;60.50;;;;;6.81;69.84;99314.00;4976590;28;9570;-64
2021/03/05 01:45:41;;;;;;;;;86.25;61.75;;;;;6.54;70.73;99310.13;4972709;28;8861;-63
2021/03/05 01:48:17;;;;;;;;;78.75;61.25;;;;;6.21;72.68;99302.88;4957224;28;8847;-64
2021/03/05 01:51:16;;;;;;;;;85.00;60.00;;;;;6.45;72.85;99311.47;4972151;28;8848;-64
2021/03/05 01:53:46;;;;;;;;;83.75;62.25;;;;;6.52;73.52;99312.84;4975736;28;8860;-64
2021/03/05 01:56:42;;;;;;;;;87.75;65.00;;;;;6.75;68.50;99309.00;4974969;28;8888;-64
2021/03/05 01:59:15;;;;;;;;;90.50;62.75;;;;;6.57;69.51;99299.28;4975037;28;8880;-63
2021/03/05 02:01:43;;;;;;;;;87.00;60.75;;;;;6.42;70.47;99289.41;4964644;28;8847;-64
2021/03/05 02:04:13;;;;;;;;;79.25;58.50;;;;;6.49;70.78;99296.16;4959159;28;8843;-63
2021/03/05 02:07:00;;;;;;;;;76.00;57.00;;;;;6.56;70.71;99300.25;4968977;28;8883;-64
2021/03/05 02:09:32;;;;;;;;;90.75;59.75;;;;;6.54;70.65;99299.44;4975608;28;8828;-63
2021/03/05 02:12:00;;;;;;;;;81.00;59.25;;;;;6.62;70.58;99302.59;4963586;28;8852;-63
2021/03/05 02:14:27;;;;;;;;;80.25;61.00;;;;;6.49;70.01;99301.50;4983121;28;8859;-63
2021/03/05 02:17:23;;;;;;;;;84.25;60.75;;;;;6.23;70.94;99293.00;4970747;28;8853;-63
2021/03/05 02:20:21;;;;;;;;;79.50;58.25;;;;;6.27;71.73;99296.38;4968372;28;8865;-62
2021/03/05 02:23:16;;;;;;;;;83.00;62.00;;;;;6.23;71.97;99295.66;4974701;28;8856;-64
2021/03/05 02:26:14;;;;;;;;;90.75;62.75;;;;;6.54;69.17;99288.78;4974932;28;8944;-63
2021/03/05 02:29:18;;;;;;;;;90.50;63.75;;;;;6.33;70.42;99286.25;4973742;28;8872;-63
2021/03/05 02:32:02;;;;;;;;;76.25;59.25;;;;;6.58;70.15;99291.22;4975614;28;8843;-63
2021/03/05 02:34:35;;;;;;;;;83.50;62.50;;;;;6.04;72.28;99279.72;4974866;28;9550;-63
2021/03/05 02:37:25;;;;;;;;;81.50;57.50;;;;;6.21;72.88;99286.00;4971908;28;8860;-63
2021/03/05 02:40:09;;;;;;;;;76.50;58.50;;;;;6.15;70.99;99281.84;4971690;28;8870;-64
2021/03/05 02:42:55;;;;;;;;;87.50;62.75;;;;;6.11;72.28;99286.50;4968058;28;8868;-63
2021/03/05 02:45:30;;;;;;;;;84.00;64.00;;;;;6.06;71.33;99287.66;4955357;28;8968;-64
2021/03/05 02:48:11;;;;;;;;;83.25;60.75;;;;;5.75;72.58;99278.47;4986746;28;8849;-64
2021/03/05 02:50:51;;;;;;;;;82.75;60.00;;;;;5.58;74.51;99275.72;4969443;28;8839;-62
2021/03/05 02:53:20;;;;;;;;;78.75;54.00;;;;;5.93;72.32;99266.94;4989923;28;8848;-63
2021/03/05 02:55:58;;;;;;;;;74.25;56.00;;;;;6.46;69.02;99272.31;4971809;28;8856;-62
2021/03/05 02:58:25;;;;;;;;;76.00;52.25;;;;;6.56;67.83;99268.22;4954896;28;8961;-63
2021/03/05 03:00:54;;;;;;;;;76.75;55.25;;;;;6.62;68.07;99270.56;4967309;28;8880;-62
2021/03/05 03:03:23;;;;;;;;;74.75;56.00;;;;;6.68;68.38;99269.38;4962398;28;8855;-63
2021/03/05 03:05:52;;;;;;;;;80.50;56.50;;;;;6.25;69.04;99261.78;4963427;28;8840;-63
2021/03/05 03:08:23;;;;;;;;;76.50;55.25;;;;;6.38;68.81;99249.56;4988758;28;8852;-63
2021/03/05 03:10:52;;;;;;;;;77.00;58.25;;;;;6.59;68.52;99252.91;4971868;28;9576;-63
2021/03/05 03:13:19;;;;;;;;;76.75;57.75;;;;;6.65;67.78;99254.41;4973182;28;8874;-62
2021/03/05 03:15:50;;;;;;;;;79.25;55.25;;;;;6.43;69.26;99264.47;4974275;28;8986;-63
2021/03/05 03:18:18;;;;;;;;;77.75;54.25;;;;;6.60;67.42;99261.78;4974173;28;8991;-63
2021/03/05 03:20:46;;;;;;;;;70.75;52.50;;;;;6.80;67.52;99266.94;4974548;28;8833;-63
2021/03/05 03:23:18;;;;;;;;;67.25;53.50;;;;;6.46;67.49;99258.97;4973201;28;8848;-63
2021/03/05 03:25:45;;;;;;;;;75.75;56.25;;;;;6.68;67.44;99258.72;4961883;28;8895;-63
2021/03/05 03:28:13;;;;;;;;;73.50;54.75;;;;;6.82;66.45;99267.72;4974269;28;8969;-63
2021/03/05 03:30:40;;;;;;;;;68.50;50.50;;;;;6.86;65.56;99262.22;4970690;28;8840;-63
2021/03/05 03:33:07;;;;;;;;;43.50;35.75;;;;;6.73;65.89;99262.00;4966361;28;8879;-62
2021/03/05 03:35:35;;;;;;;;;104.25;79.75;;;;;6.72;65.86;99260.28;4962707;28;8885;-62
2021/03/05 03:38:11;;;;;;;;;68.00;52.25;;;;;6.59;66.61;99257.41;4968604;28;8959;-63
2021/03/05 03:40:40;;;;;;;;;78.50;55.75;;;;;6.69;65.78;99260.44;4965916;28;8844;-63
2021/03/05 03:43:08;;;;;;;;;64.50;47.50;;;;;6.76;65.09;99245.84;4955468;28;9589;-63
2021/03/05 03:45:39;;;;;;;;;57.00;40.75;;;;;6.78;64.66;99243.94;4963007;28;8927;-63
2021/03/05 03:48:07;;;;;;;;;67.50;48.75;;;;;6.80;64.05;99245.59;4957863;28;8855;-63
2021/03/05 03:50:51;;;;;;;;;64.00;51.25;;;;;6.85;63.44;99248.03;4959681;28;9542;-64
2021/03/05 03:53:29;;;;;;;;;66.25;46.00;;;;;6.81;63.60;99244.63;4970322;28;8849;-63
2021/03/05 03:55:57;;;;;;;;;72.00;52.25;;;;;6.67;64.35;99246.34;4975155;28;8860;-63
2021/03/05 03:58:27;;;;;;;;;68.75;52.25;;;;;6.86;65.20;99263.06;4978225;28;8855;-64
2021/03/05 04:01:07;;;;;;;;;59.50;39.50;;;;;6.84;64.45;99264.09;4973661;28;8829;-63
2021/03/05 04:03:40;;;;;;;;;65.75;44.50;;;;;6.87;63.59;99250.59;4971637;28;8953;-63
2021/03/05 04:06:09;;;;;;;;;54.50;43.00;;;;;6.76;64.65;99252.03;4971899;28;8906;-62
2021/03/05 04:08:40;;;;;;;;;64.25;44.00;;;;;6.64;65.27;99260.69;4971363;28;8888;-63
2021/03/05 04:11:09;;;;;;;;;60.75;47.25;;;;;6.46;66.11;99256.31;4973049;28;8866;-62
2021/03/05 04:13:39;;;;;;;;;65.00;48.00;;;;;6.41;65.98;99250.34;4953495;28;8940;-63
2021/03/05 04:16:06;;;;;;;;;67.50;48.50;;;;;6.23;66.71;99250.34;4982760;28;8952;-63
2021/03/05 04:18:42;;;;;;;;;62.75;49.50;;;;;6.33;66.63;99253.41;4991328;28;8873;-63
2021/03/05 04:21:29;;;;;;;;;69.25;50.00;;;;;6.28;66.43;99253.63;4991461;28;8858;-63
2021/03/05 04:23:56;;;;;;;;;62.75;47.00;;;;;6.28;66.88;99255.44;4953491;28;8895;-63
2021/03/05 04:26:23;;;;;;;;;67.00;49.00;;;;;6.14;67.13;99242.81;4952073;28;8870;-63
2021/03/05 04:28:52;;;;;;;;;72.25;52.75;;;;;6.17;66.65;99242.66;4983547;28;8916;-64
2021/03/05 04:31:21;;;;;;;;;67.75;52.00;;;;;6.20;66.08;99247.84;5010920;28;8936;-63
2021/03/05 04:33:49;;;;;;;;;72.50;51.75;;;;;6.19;66.96;99239.91;4995849;28;8973;-63
2021/03/05 04:36:17;;;;;;;;;63.25;47.50;;;;;6.22;66.91;99235.31;4995777;28;8896;-64
2021/03/05 04:38:58;;;;;;;;;62.75;47.00;;;;;6.29;65.42;99226.06;4996015;28;9579;-64
2021/03/05 04:41:26;;;;;;;;;65.75;47.50;;;;;6.49;64.44;99224.16;4984661;28;8895;-63
2021/03/05 04:43:57;;;;;;;;;67.25;47.75;;;;;6.58;64.52;99223.66;4976397;28;8852;-64
2021/03/05 04:46:27;;;;;;;;;65.50;47.00;;;;;6.51;64.64;99214.28;4977126;28;8857;-63
2021/03/05 04:48:55;;;;;;;;;66.00;44.00;;;;;6.51;64.87;99214.28;4976167;28;8870;-64
2021/03/05 04:51:22;;;;;;;;;65.75;47.25;;;;;6.50;63.76;99217.84;4977211;28;9676;-64
2021/03/05 04:53:51;;;;;;;;;62.50;47.50;;;;;6.47;64.36;99208.22;4977303;28;8968;-64
2021/03/05 04:56:18;;;;;;;;;55.25;43.50;;;;;6.42;64.52;99207.59;4976636;28;8852;-64
2021/03/05 04:58:45;;;;;;;;;56.00;41.00;;;;;6.49;64.34;99213.47;4976969;28;8884;-64
2021/03/05 05:01:12;;;;;;;;;54.25;44.25;;;;;6.55;63.51;99215.81;4976677;28;8852;-64
2021/03/05 05:03:39;;;;;;;;;59.00;43.75;;;;;6.51;64.34;99211.59;4977245;28;8852;-63
2021/03/05 05:06:06;;;;;;;;;68.50;43.75;;;;;6.53;63.79;99223.03;4976888;28;8868;-64
2021/03/05 05:08:33;;;;;;;;;62.25;40.75;;;;;6.44;64.89;99212.84;4976393;28;8906;-63
2021/03/05 05:11:01;;;;;;;;;65.00;45.25;;;;;6.54;64.14;99220.28;4976904;28;8879;-64
2021/03/05 05:13:31;;;;;;;;;61.25;43.00;;;;;6.65;63.81;99213.53;4976690;28;9561;-64
2021/03/05 05:15:58;;;;;;;;;61.00;47.00;;;;;6.63;63.69;99218.94;4990294;28;8862;-63
2021/03/05 05:18:25;;;;;;;;;59.25;45.50;;;;;6.36;64.52;99222.09;4995751;28;8865;-64
2021/03/05 05:20:53;;;;;;;;;56.75;46.75;;;;;6.35;65.00;99220.41;4996421;28;8857;-64
2021/03/05 05:23:20;;;;;;;;;66.25;50.25;;;;;6.21;65.98;99225.56;4996728;28;8960;-63
2021/03/05 05:25:52;;;;;;;;;68.00;54.50;;;;;6.17;65.23;99221.34;4996329;28;8904;-64
2021/03/05 05:28:19;;;;;;;;;73.25;48.75;;;;;6.21;65.10;99222.91;4996660;28;8853;-64
2021/03/05 05:30:46;;;;;;;;;67.75;48.50;;;;;6.19;65.13;99224.81;4996933;28;8838;-63
2021/03/05 05:33:16;;;;;;;;;65.00;47.00;;;;;6.24;65.31;99228.09;4996362;28;8980;-63
2021/03/05 05:35:47;;;;;;;;;61.25;46.50;;;;;6.13;65.69;99227.75;4996797;28;8861;-62
2021/03/05 05:38:18;;;;;;;;;61.50;46.75;;;;;6.20;65.86;99231.00;4996142;28;8892;-63
2021/03/05 05:40:45;;;;;;;;;65.50;45.00;;;;;6.28;65.09;99239.44;5011142;28;8849;-63
2021/03/05 05:43:12;;;;;;;;;54.50;46.25;;;;;6.05;66.52;99232.63;5012385;28;9605;-63
2021/03/05 05:45:45;;;;;;;;;65.25;48.50;;;;;6.20;67.13;99239.84;4996839;28;8857;-64
2021/03/05 05:48:14;;;;;;;;;59.75;47.00;;;;;6.29;67.33;99241.16;4996274;28;8854;-64
2021/03/05 05:50:43;;;;;;;;;67.75;51.75;;;;;6.24;67.42;99238.75;5010999;28;8923;-63
2021/03/05 05:53:12;;;;;;;;;70.00;54.25;;;;;6.12;66.82;99240.22;5011398;28;8858;-63
2021/03/05 05:55:40;;;;;;;;;68.00;51.25;;;;;6.39;66.50;99253.09;4996761;28;8854;-64
2021/03/05 05:58:09;;;;;;;;;54.50;42.00;;;;;6.27;66.00;99243.06;4994579;28;8881;-63
2021/03/05 06:00:36;;;;;;;;;66.00;47.00;;;;;6.35;68.21;99247.06;4996476;28;8874;-64
2021/03/05 06:03:08;;;;;;;;;79.25;55.75;;;;;6.26;67.54;99246.66;4996225;28;8822;-63
2021/03/05 06:05:35;;;;;;;;;82.50;56.25;;;;;6.69;64.59;99250.66;4995792;28;8849;-64
2021/03/05 06:08:02;;;;;;;;;80.25;56.75;;;;;6.73;63.95;99252.19;4981750;28;8878;-64
2021/03/05 06:10:29;;;;;;;;;75.00;54.75;;;;;6.49;64.86;99242.81;4993077;28;8860;-64
2021/03/05 06:12:56;;;;;;;;;79.75;57.75;;;;;6.54;65.87;99235.44;4976323;28;8848;-63
2021/03/05 06:15:27;;;;;;;;;68.50;51.00;;;;;6.52;65.50;99234.66;4984021;28;8846;-64
2021/03/05 06:17:56;;;;;;;;;71.50;53.50;;;;;6.44;65.25;99245.72;4996111;28;8841;-64
2021/03/05 06:20:23;;;;;;;;;64.00;48.50;;;;;6.48;65.61;99235.78;4995871;28;8928;-62
2021/03/05 06:23:16;;;;;;;;;68.75;48.50;;;;;6.76;64.36;99230.69;4995613;28;9609;-63
2021/03/05 06:25:42;;;;;;;;;67.75;51.25;;;;;6.71;65.10;99243.41;4957066;28;8847;-64
2021/03/05 06:28:18;;;;;;;;;70.25;52.50;;;;;6.81;64.80;99239.31;4957124;28;8870;-64
2021/03/05 06:30:46;;;;;;;;;81.75;62.00;;;;;6.61;65.52;99242.19;4957230;28;8839;-64
2021/03/05 06:33:23;;;;;;;;;78.50;54.25;;;;;6.78;64.50;99241.28;4956647;28;8892;-63
2021/03/05 06:35:53;;;;;;;;;68.25;51.25;;;;;6.99;66.41;99242.78;4957102;28;8863;-63
2021/03/05 06:38:43;;;;;;;;;70.00;51.50;;;;;6.90;64.60;99250.41;4956312;28;8905;-64
2021/03/05 06:41:31;;;;;;;;;68.00;50.25;;;;;6.86;64.75;99252.41;4976471;28;8979;-64
2021/03/05 06:44:03;;;;;;;;;69.25;51.75;;;;;7.01;64.75;99259.59;4993366;28;8866;-64
2021/03/05 06:46:41;;;;;;;;;69.50;53.25;;;;;6.93;64.78;99258.28;4994953;28;8872;-63
2021/03/05 06:49:16;;;;;;;;;66.00;52.50;;;;;6.96;64.19;99261.66;5009280;28;8845;-64
2021/03/05 06:51:55;;;;;;;;;71.25;50.50;;;;;7.25;62.89;99256.53;4993345;28;9022;-64
2021/03/05 06:54:34;;;;;;;;;72.50;51.00;;;;;7.21;63.83;99258.53;4993528;28;8838;-64
2021/03/05 06:57:03;;;;;;;;;72.25;55.75;;;;;7.30;63.06;99266.97;4993228;28;8841;-64
2021/03/05 06:59:50;;;;;;;;;74.75;54.00;;;;;7.20;63.87;99259.44;5009316;28;8858;-64
2021/03/05 07:02:17;;;;;;;;;73.00;54.00;;;;;7.13;64.35;99263.38;4994122;28;8877;-64
2021/03/05 07:04:51;;;;;;;;;75.50;54.25;;;;;7.23;63.72;99261.94;4993944;28;8846;-63
2021/03/05 07:07:20;;;;;;;;;67.50;52.50;;;;;7.35;63.79;99264.91;4993714;28;8956;-63
2021/03/05 07:09:55;;;;;;;;;82.75;58.00;;;;;7.41;64.53;99264.56;4993746;28;8857;-64
2021/03/05 07:12:26;;;;;;;;;71.50;51.25;;;;;7.46;63.18;99268.69;5009505;28;8846;-63
2021/03/05 07:14:59;;;;;;;;;59.75;49.25;;;;;7.62;63.40;99274.06;5003806;28;8935;-64
2021/03/05 07:17:29;;;;;;;;;75.50;55.25;;;;;7.67;63.43;99271.97;4974674;28;8877;-63
2021/03/05 07:19:58;;;;;;;;;73.50;54.00;;;;;7.71;62.91;99280.69;4989805;28;8864;-64
2021/03/05 07:22:28;;;;;;;;;71.75;50.75;;;;;7.93;62.84;99283.00;4973410;28;8836;-63
2021/03/05 07:24:57;;;;;;;;;70.25;53.00;;;;;7.87;62.31;99288.69;4973707;28;8845;-63
2021/03/05 07:27:34;;;;;;;;;77.75;53.75;;;;;8.07;61.91;99296.44;4989499;28;8883;-63
2021/03/05 07:30:04;;;;;;;;;70.50;53.75;;;;;8.12;61.89;99282.81;4989672;28;8844;-63
2021/03/05 07:32:50;;;;;;;;;71.00;53.25;;;;;8.25;61.91;99282.97;4974357;28;8844;-63
2021/03/05 07:35:23;;;;;;;;;65.00;51.50;;;;;8.41;61.54;99283.81;4988667;28;8837;-63
2021/03/05 07:37:55;;;;;;;;;72.50;50.25;;;;;8.48;61.65;99287.00;4973217;28;8954;-62
2021/03/05 07:40:24;;;;;;;;;69.25;52.75;;;;;8.59;61.61;99287.22;4966117;28;674589;-64
2021/03/05 07:42:52;;;;;;;;;71.25;53.75;;;;;8.58;62.24;99296.16;4974397;28;8868;-63
2021/03/05 07:45:19;;;;;;;;;70.00;51.50;;;;;8.45;62.36;99296.06;4973860;28;8828;-63
2021/03/05 07:47:56;;;;;;;;;57.25;46.75;;;;;8.61;62.63;99301.38;4975162;28;8841;-63
2021/03/05 07:50:30;;;;;;;;;70.75;52.75;;;;;8.67;62.74;99302.81;4974335;28;8903;-63
2021/03/05 07:52:59;;;;;;;;;67.00;51.00;;;;;8.64;63.06;99305.66;4990259;28;8863;-63
2021/03/05 07:55:42;;;;;;;;;65.00;49.50;;;;;8.63;64.07;99311.97;4975091;28;8861;-63
2021/03/05 07:58:09;;;;;;;;;65.25;48.75;;;;;8.66;64.77;99312.66;4975022;28;8978;-63
2021/03/05 08:00:49;;;;;;;;;66.00;49.75;;;;;8.67;65.82;99317.03;4989882;28;8872;-63
2021/03/05 08:03:23;;;;;;;;;86.00;62.50;;;;;8.73;67.65;99327.38;4973761;28;8895;-63
2021/03/05 08:05:58;;;;;;;;;91.50;65.00;;;;;8.70;67.84;99322.22;4974877;28;8967;-64
2021/03/05 08:08:29;;;;;;;;;80.75;61.25;;;;;8.67;68.29;99322.41;4974530;28;9566;-64
2021/03/05 08:11:05;;;;;;;;;71.50;53.75;;;;;8.62;69.15;99318.28;4974462;28;8856;-64
2021/03/05 08:13:53;;;;;;;;;68.25;51.75;;;;;8.67;69.27;99316.19;4974754;28;8860;-64
2021/03/05 08:16:26;;;;;;;;;81.25;56.75;;;;;8.56;72.39;99309.66;4992240;28;8861;-63
2021/03/05 08:19:05;;;;;;;;;72.25;53.50;;;;;8.50;72.52;99312.69;4993713;28;8980;-64
2021/03/05 08:22:08;;;;;;;;;64.33;48.67;;;;;8.56;72.98;99306.97;4993849;28;8837;-63
2021/03/05 08:24:40;;;;;;;;;67.33;53.00;;;;;8.61;72.56;99311.19;4993922;28;8837;-64
2021/03/05 08:27:37;;;;;;;;;65.00;48.33;;;;;8.77;71.94;99306.66;4988098;28;8850;-63
2021/03/05 08:30:44;;;;;;;;;63.33;48.00;;;;;8.83;71.60;99303.59;4978897;28;8924;-64
2021/03/05 08:33:29;;;;;;;;;66.67;49.33;;;;;8.86;69.36;99311.44;4991105;28;8842;-63
2021/03/05 08:35:56;;;;;;;;;60.33;46.67;;;;;9.00;69.65;99300.78;4993408;28;9814;-64
2021/03/05 08:38:37;;;;;;;;;58.33;48.00;;;;;9.02;69.14;99303.34;4994198;28;8916;-63
2021/03/05 08:41:15;;;;;;;;;60.33;45.33;;;;;9.31;68.77;99301.53;4994193;28;8956;-63
2021/03/05 08:44:07;;;;;;;;;66.00;48.00;;;;;9.37;67.20;99309.19;5009226;28;8856;-64
2021/03/05 08:46:47;;;;;;;;;53.33;40.67;;;;;9.39;67.88;99304.56;4994563;28;8850;-64
2021/03/05 08:49:14;;;;;;;;;57.00;42.67;;;;;9.49;66.82;99293.28;4993938;28;8865;-63
2021/03/05 08:51:46;;;;;;;;;57.33;42.00;;;;;9.65;65.50;99294.88;4981982;28;9553;-64
2021/03/05 08:54:14;;;;;;;;;57.67;40.67;;;;;9.85;66.01;99293.63;4954117;29;8847;-64
2021/03/05 08:56:42;;;;;;;;;45.00;37.33;;;;;9.82;64.11;99301.88;4953697;28;8951;-64
2021/03/05 08:59:09;;;;;;;;;50.67;39.33;;;;;9.95;64.18;99295.69;4955157;28;8894;-64
2021/03/05 09:01:38;;;;;;;;;43.67;40.00;;;;;10.09;64.57;99295.66;4954953;28;8867;-64
2021/03/05 09:04:21;;;;;;;;;50.33;40.00;;;;;10.13;64.91;99299.84;4954675;28;8835;-64
2021/03/05 09:06:55;;;;;;;;;49.33;38.33;;;;;10.07;64.75;99289.53;4969281;28;8855;-64
2021/03/05 09:09:30;;;;;;;;;39.00;35.33;;;;;10.18;63.94;99292.34;4954823;28;8850;-63
2021/03/05 09:12:21;;;;;;;;;36.67;29.33;;;;;10.36;63.88;99295.66;4954733;28;8843;-63
2021/03/05 09:14:59;;;;;;;;;29.33;26.00;;;;;10.36;64.11;99300.19;4966781;28;8980;-65
2021/03/05 09:17:27;;;;;;;;;26.00;25.33;;;;;10.32;63.16;99307.56;5012194;28;9022;-64
2021/03/05 09:19:54;;;;;;;;;34.67;27.33;;;;;10.46;63.58;99301.28;4996901;28;8861;-64
2021/03/05 09:22:26;;;;;;;;;29.67;22.67;;;;;10.61;62.94;99311.00;4996468;28;8876;-64
2021/03/05 09:25:05;;;;;;;;;22.67;16.67;;;;;10.53;62.31;99305.25;4996645;28;8887;-62
2021/03/05 09:27:41;;;;;;;;;30.00;29.00;;;;;10.72;63.02;99313.81;5011908;28;8869;-63
2021/03/05 09:30:24;;;;;;;;;36.33;28.67;;;;;10.61;62.28;99305.63;4996898;28;8872;-64
2021/03/05 09:32:57;;;;;;;;;24.67;23.67;;;;;10.72;62.27;99316.50;4996707;28;8863;-64
2021/03/05 09:35:27;;;;;;;;;32.67;24.00;;;;;10.80;62.28;99309.75;4996885;28;8858;-64
2021/03/05 09:37:57;;;;;;;;;29.67;23.00;;;;;10.71;62.17;99311.22;4996327;28;8818;-63
2021/03/05 09:40:30;;;;;;;;;33.67;27.67;;;;;10.65;61.75;99325.91;4996170;28;8886;-64
2021/03/05 09:43:01;;;;;;;;;42.00;34.00;;;;;10.94;62.42;99328.44;4996585;28;8888;-64
2021/03/05 09:45:47;;;;;;;;;28.00;23.00;;;;;10.91;62.36;99325.97;4996351;28;8888;-62
2021/03/05 09:48:34;;;;;;;;;34.00;30.67;;;;;10.81;62.38;99328.41;4996279;28;11648;-63
2021/03/05 09:51:09;;;;;;;;;23.67;23.00;;;;;10.80;61.54;99331.22;4996498;28;8838;-64
2021/03/05 09:53:39;;;;;;;;;27.33;21.33;;;;;10.69;60.89;99329.25;4995417;28;8876;-63
2021/03/05 09:56:10;;;;;;;;;25.00;19.33;;;;;10.69;61.87;99335.50;5010918;28;11598;-64
2021/03/05 09:58:37;;;;;;;;;20.33;18.33;;;;;10.73;61.21;99338.81;5011207;28;11591;-61
2021/03/05 10:01:05;;;;;;;;;22.00;21.33;;;;;10.68;60.04;99320.34;4994754;28;8853;-63
2021/03/05 10:03:32;;;;;;;;;21.33;18.33;;;;;10.72;59.90;99343.34;4996292;28;8952;-62
2021/03/05 10:06:00;;;;;;;;;28.00;21.33;;;;;10.83;60.76;99345.28;4996344;28;11707;-63
2021/03/05 10:08:31;;;;;;;;;18.00;13.67;;;;;10.75;60.16;99353.00;4996703;28;8876;-64
2021/03/05 10:11:07;;;;;;;;;28.00;23.00;;;;;10.70;61.32;99352.47;4996728;28;11592;-63
2021/03/05 10:13:49;;;;;;;;;27.67;23.00;;;;;10.68;61.26;99347.19;4996875;28;8853;-64
2021/03/05 10:16:35;;;;;;;;;22.67;17.33;;;;;10.85;61.05;99367.53;4979583;28;8847;-64
2021/03/05 10:19:17;;;;;;;;;20.00;16.67;;;;;11.02;62.88;99363.69;4976660;28;8966;-64
2021/03/05 10:21:50;;;;;;;;;19.00;19.00;;;;;10.93;61.95;99353.59;4976384;28;11633;-63
2021/03/05 10:24:25;;;;;;;;;32.67;27.67;;;;;10.95;61.58;99357.00;4975140;28;11681;-63
2021/03/05 10:27:21;;;;;;;;;22.33;20.00;;;;;10.84;60.33;99364.94;4975845;28;8840;-63
2021/03/05 10:30:03;;;;;;;;;29.00;26.33;;;;;10.77;60.72;99362.69;4976627;28;11625;-63
2021/03/05 10:32:33;;;;;;;;;21.67;19.00;;;;;10.71;60.47;99363.06;4976572;28;11674;-63
2021/03/05 10:35:12;;;;;;;;;22.33;22.00;;;;;10.81;61.10;99354.41;4976684;28;11582;-60
2021/03/05 10:37:40;;;;;;;;;33.00;19.33;;;;;10.90;60.62;99348.41;4991049;28;11611;-60
2021/03/05 10:40:14;;;;;;;;;20.00;15.33;;;;;10.75;59.63;99353.00;4975750;28;11628;-59
2021/03/05 10:42:43;;;;;;;;;18.67;16.33;;;;;10.62;60.61;99352.97;4974762;28;12276;-60
2021/03/05 10:45:11;;;;;;;;;23.00;21.67;;;;;10.77;60.31;99357.31;4976110;28;11594;-59
2021/03/05 10:47:38;;;;;;;;;22.00;20.00;;;;;10.81;59.99;99359.78;4976116;28;11595;-59
2021/03/05 10:50:07;;;;;;;;;22.00;20.67;;;;;10.88;60.73;99358.41;4975400;28;8975;-59
2021/03/05 10:52:34;;;;;;;;;20.00;18.00;;;;;10.83;60.47;99364.09;4990796;28;11697;-59
2021/03/05 10:55:03;;;;;;;;;18.33;17.67;;;;;10.85;59.99;99358.59;4975735;28;11614;-59
2021/03/05 10:57:33;;;;;;;;;31.67;24.67;;;;;11.24;59.62;99363.06;4975255;28;12345;-59
2021/03/05 11:00:00;;;;;;;;;18.33;17.00;;;;;11.21;59.43;99369.50;4975387;28;11617;-60
2021/03/05 11:02:27;;;;;;;;;23.25;20.00;;;;;11.23;59.57;99368.56;4990583;28;11593;-60
2021/03/05 11:04:56;;;;;;;;;24.75;23.00;;;;;11.64;58.85;99365.66;4990084;28;11697;-59
2021/03/05 11:07:23;;;;;;;;;21.50;19.25;;;;;11.47;59.47;99366.84;4975210;28;11667;-60
2021/03/05 11:09:51;;;;;;;;;26.00;18.00;;;;;11.38;59.12;99370.19;4974309;28;11674;-60
2021/03/05 11:12:18;;;;;;;;;28.50;21.75;;;;;11.58;59.57;99366.91;4975389;28;11578;-59
2021/03/05 11:14:46;;;;;;;;;26.75;22.00;;;;;11.28;59.38;99363.72;4979766;28;11608;-59
2021/03/05 11:17:13;;;;;;;;;30.25;20.50;;;;;11.27;58.93;99378.09;4994529;28;11576;-60
2021/03/05 11:19:40;;;;;;;;;24.00;19.33;;;;;11.31;59.65;99364.34;4994482;28;11614;-59
2021/03/05 11:22:07;;;;;;;;;25.25;24.75;;;;;11.76;58.81;99369.28;4994690;28;11575;-60
2021/03/05 11:24:37;;;;;;;;;28.25;20.50;;;;;11.92;58.23;99364.53;4994746;28;11697;-60
2021/03/05 11:27:06;;;;;;;;;19.25;14.25;;;;;11.57;57.41;99367.91;5009939;28;11580;-62
2021/03/05 11:29:33;;;;;;;;;31.25;24.75;;;;;11.78;57.56;99356.59;4994229;28;12290;-60
2021/03/05 11:32:01;;;;;;;;;34.00;27.25;;;;;11.90;58.69;99366.50;4993666;28;11590;-61
2021/03/05 11:34:33;;;;;;;;;29.50;24.25;;;;;11.41;58.78;99367.28;4994818;28;11589;-59
2021/03/05 11:37:04;;;;;;;;;31.75;26.00;;;;;11.88;57.94;99355.00;4993921;28;11663;-60
2021/03/05 11:39:31;;;;;;;;;39.67;27.67;;;;;11.94;57.98;99361.75;4993907;28;11711;-61
2021/03/05 11:42:06;;;;;;;;;33.25;27.75;;;;;11.90;57.50;99366.50;4994059;28;11665;-60
2021/03/05 11:44:36;;;;;;;;;41.00;33.33;;;;;12.04;59.53;99371.75;4994123;28;11616;-60
2021/03/05 11:47:03;;;;;;;;;45.00;37.00;;;;;12.06;59.44;99371.63;4993937;28;11592;-59
2021/03/05 11:49:30;;;;;;;;;51.33;41.00;;;;;12.09;59.72;99384.88;4994546;28;8876;-60
2021/03/05 11:51:57;;;;;;;;;45.33;39.00;;;;;12.21;58.03;99375.88;4994396;28;8860;-59
2021/03/05 11:54:23;;;;;;;;;48.00;42.00;;;;;11.58;58.84;99392.97;4993213;28;8842;-58